KCUB

Details ICAO KCUB
Name Columbia Owens Downtown
Region United States
Timezone America/New_York (UTC-5.0)
Plans Departing 21
Arriving 17
Stats Elevation 192 ft / 59 m (AMSL)
Location 33.970478° -80.995223°
Runways 1
Magnetic Variation 7.451° W
Sunrise 2017-12-15 12:23:30 UTC / 2017-12-15 07:23:30 Local
Sunset 2017-12-15 22:17:46 UTC / 2017-12-15 17:17:46 Local
Advertisement - Login to hide

Runways

ID Width Length Bearing (true) Bearing (mag) Surface Threshold Offset Overrun Length
13 75 ft / 23 m 5,001 ft / 1,524 m 127.12° 134.57° Asphalt 0 ft / 0 m 400 ft / 122 m
31 75 ft / 23 m 5,001 ft / 1,524 m 307.13° 314.58° Asphalt 390 ft / 119 m 0 ft / 0 m

Approach Navaids

Runway Type Ident Frequency Range Bearing (true) Bearing (mag) Slope Elevation
31 Localiser ICUB 110.90 MHz 18 nm / 33 km 306.17° 313.62° - 191 ft / 58 m (AMSL)

Map

Weather


0- 5 10 15 20 25 30 35+ Temperature / ° C

Clouds and Precipitation
Forecast for 2017-12-15 18:00 UTC. Updated 37 minutes ago

Ground ~20,000 ft ~40,000 ft Winds

METAR

KCUB 151653Z AUTO 24006KT 10SM CLR 12/02 A2998 RMK AO2 SLP152 T01220017

TAF

KCUB 151732Z 1518/1618 27009KT P6SM BKN200 FM160000 27004KT P6SM SCT200

Frequencies

Recorded 119.67 MHz ASOS
Clearance 124.40 MHz CLNC DEL
Unicom 122.80 MHz CTAF/UNICOM
Approach 133.40 MHz APP/DEP
Warning: Do not use this data for real-world aviation or navigation. No guarantee of current accuracy is given.